sensor_id;sensor_type;location;lat;lon;timestamp;temperature;humidity
31729;DHT22;18309;43.658;1.312;2023-04-09T00:01:11;14.00;64.50
31729;DHT22;18309;43.658;1.312;2023-04-09T00:03:37;13.90;65.00
31729;DHT22;18309;43.658;1.312;2023-04-09T00:06:04;13.80;65.90
31729;DHT22;18309;43.658;1.312;2023-04-09T00:08:30;13.70;66.30
31729;DHT22;18309;43.658;1.312;2023-04-09T00:10:58;13.60;66.90
31729;DHT22;18309;43.658;1.312;2023-04-09T00:13:24;13.50;67.20
31729;DHT22;18309;43.658;1.312;2023-04-09T00:15:50;13.50;67.40
31729;DHT22;18309;43.658;1.312;2023-04-09T00:18:16;13.50;67.00
31729;DHT22;18309;43.658;1.312;2023-04-09T00:20:42;13.40;67.30
31729;DHT22;18309;43.658;1.312;2023-04-09T00:23:08;13.40;68.40
31729;DHT22;18309;43.658;1.312;2023-04-09T00:25:34;13.30;69.20
31729;DHT22;18309;43.658;1.312;2023-04-09T00:28:00;13.30;69.50
31729;DHT22;18309;43.658;1.312;2023-04-09T00:30:29;13.30;70.20
31729;DHT22;18309;43.658;1.312;2023-04-09T00:32:55;13.30;70.70
31729;DHT22;18309;43.658;1.312;2023-04-09T00:35:21;13.20;69.90
31729;DHT22;18309;43.658;1.312;2023-04-09T00:37:47;13.20;69.50
31729;DHT22;18309;43.658;1.312;2023-04-09T00:40:12;13.20;69.60
31729;DHT22;18309;43.658;1.312;2023-04-09T00:42:38;13.20;70.20
31729;DHT22;18309;43.658;1.312;2023-04-09T00:45:05;13.20;70.50
31729;DHT22;18309;43.658;1.312;2023-04-09T00:47:31;13.20;69.30
31729;DHT22;18309;43.658;1.312;2023-04-09T00:49:57;13.10;68.90
31729;DHT22;18309;43.658;1.312;2023-04-09T00:52:23;13.10;68.30
31729;DHT22;18309;43.658;1.312;2023-04-09T00:54:50;13.10;69.30
31729;DHT22;18309;43.658;1.312;2023-04-09T00:57:16;13.10;69.40
31729;DHT22;18309;43.658;1.312;2023-04-09T00:59:45;13.00;70.50
31729;DHT22;18309;43.658;1.312;2023-04-09T01:02:11;13.00;71.10
31729;DHT22;18309;43.658;1.312;2023-04-09T01:04:39;13.00;70.90
31729;DHT22;18309;43.658;1.312;2023-04-09T01:15:25;12.80;71.90
31729;DHT22;18309;43.658;1.312;2023-04-09T01:18:09;12.80;72.10
31729;DHT22;18309;43.658;1.312;2023-04-09T01:20:57;12.80;72.50
31729;DHT22;18309;43.658;1.312;2023-04-09T01:26:56;12.70;73.30
31729;DHT22;18309;43.658;1.312;2023-04-09T01:29:23;12.70;73.20
31729;DHT22;18309;43.658;1.312;2023-04-09T01:31:51;12.60;73.20
31729;DHT22;18309;43.658;1.312;2023-04-09T01:34:17;12.60;73.50
31729;DHT22;18309;43.658;1.312;2023-04-09T01:36:52;12.60;73.50
31729;DHT22;18309;43.658;1.312;2023-04-09T01:39:20;12.60;73.00
31729;DHT22;18309;43.658;1.312;2023-04-09T01:41:46;12.60;73.90
31729;DHT22;18309;43.658;1.312;2023-04-09T01:44:13;12.60;73.40
31729;DHT22;18309;43.658;1.312;2023-04-09T01:46:39;12.70;74.00
31729;DHT22;18309;43.658;1.312;2023-04-09T01:49:06;12.60;74.20
31729;DHT22;18309;43.658;1.312;2023-04-09T01:51:32;12.60;73.90
31729;DHT22;18309;43.658;1.312;2023-04-09T01:54:00;12.50;74.10
31729;DHT22;18309;43.658;1.312;2023-04-09T01:56:25;12.50;74.90
31729;DHT22;18309;43.658;1.312;2023-04-09T01:58:51;12.40;74.90
31729;DHT22;18309;43.658;1.312;2023-04-09T02:01:28;12.40;75.10
31729;DHT22;18309;43.658;1.312;2023-04-09T02:04:01;12.30;75.30
31729;DHT22;18309;43.658;1.312;2023-04-09T02:06:43;12.20;75.80
31729;DHT22;18309;43.658;1.312;2023-04-09T02:09:11;12.10;76.10
31729;DHT22;18309;43.658;1.312;2023-04-09T02:11:40;12.10;75.90
31729;DHT22;18309;43.658;1.312;2023-04-09T02:14:07;12.10;75.90
31729;DHT22;18309;43.658;1.312;2023-04-09T02:16:33;12.10;75.80
31729;DHT22;18309;43.658;1.312;2023-04-09T02:19:01;12.00;75.80
31729;DHT22;18309;43.658;1.312;2023-04-09T02:21:28;12.00;76.40
31729;DHT22;18309;43.658;1.312;2023-04-09T02:23:56;12.00;77.10
31729;DHT22;18309;43.658;1.312;2023-04-09T02:26:23;11.90;77.40
31729;DHT22;18309;43.658;1.312;2023-04-09T02:28:49;11.90;77.10
31729;DHT22;18309;43.658;1.312;2023-04-09T02:31:15;11.90;77.40
31729;DHT22;18309;43.658;1.312;2023-04-09T02:33:41;11.90;78.00
31729;DHT22;18309;43.658;1.312;2023-04-09T02:36:10;11.90;79.60
31729;DHT22;18309;43.658;1.312;2023-04-09T02:38:38;11.80;79.10
31729;DHT22;18309;43.658;1.312;2023-04-09T02:41:04;11.80;78.30
31729;DHT22;18309;43.658;1.312;2023-04-09T02:43:30;11.70;78.10
31729;DHT22;18309;43.658;1.312;2023-04-09T02:45:56;11.70;78.40
31729;DHT22;18309;43.658;1.312;2023-04-09T02:48:21;11.70;78.80
31729;DHT22;18309;43.658;1.312;2023-04-09T02:50:47;11.60;79.30
31729;DHT22;18309;43.658;1.312;2023-04-09T02:53:12;11.70;79.60
31729;DHT22;18309;43.658;1.312;2023-04-09T02:55:38;11.70;80.20
31729;DHT22;18309;43.658;1.312;2023-04-09T02:58:04;11.60;80.80
31729;DHT22;18309;43.658;1.312;2023-04-09T03:00:29;11.60;81.30
31729;DHT22;18309;43.658;1.312;2023-04-09T03:02:55;11.60;81.40
31729;DHT22;18309;43.658;1.312;2023-04-09T03:05:22;11.50;81.20
31729;DHT22;18309;43.658;1.312;2023-04-09T03:07:48;11.50;81.40
31729;DHT22;18309;43.658;1.312;2023-04-09T03:10:14;11.50;82.00
31729;DHT22;18309;43.658;1.312;2023-04-09T03:12:40;11.40;81.80
31729;DHT22;18309;43.658;1.312;2023-04-09T03:15:06;11.40;81.80
31729;DHT22;18309;43.658;1.312;2023-04-09T03:17:32;11.40;82.30
31729;DHT22;18309;43.658;1.312;2023-04-09T03:19:57;11.40;82.70
31729;DHT22;18309;43.658;1.312;2023-04-09T03:22:23;11.40;82.80
31729;DHT22;18309;43.658;1.312;2023-04-09T03:24:49;11.30;82.10
31729;DHT22;18309;43.658;1.312;2023-04-09T03:27:14;11.30;82.30
31729;DHT22;18309;43.658;1.312;2023-04-09T03:29:40;11.20;81.90
31729;DHT22;18309;43.658;1.312;2023-04-09T03:32:06;11.20;81.60
31729;DHT22;18309;43.658;1.312;2023-04-09T03:34:32;11.30;81.50
31729;DHT22;18309;43.658;1.312;2023-04-09T03:36:57;11.30;81.70
31729;DHT22;18309;43.658;1.312;2023-04-09T03:39:23;11.30;82.00
31729;DHT22;18309;43.658;1.312;2023-04-09T03:41:49;11.30;81.60
31729;DHT22;18309;43.658;1.312;2023-04-09T03:44:14;11.30;81.80
31729;DHT22;18309;43.658;1.312;2023-04-09T03:46:40;11.30;81.60
31729;DHT22;18309;43.658;1.312;2023-04-09T03:49:06;11.20;81.60
31729;DHT22;18309;43.658;1.312;2023-04-09T03:51:32;11.20;82.20
31729;DHT22;18309;43.658;1.312;2023-04-09T03:53:58;11.10;81.90
31729;DHT22;18309;43.658;1.312;2023-04-09T03:56:23;11.10;81.90
31729;DHT22;18309;43.658;1.312;2023-04-09T03:58:49;11.10;82.10
31729;DHT22;18309;43.658;1.312;2023-04-09T04:01:15;11.10;82.00
31729;DHT22;18309;43.658;1.312;2023-04-09T04:03:40;11.00;82.00
31729;DHT22;18309;43.658;1.312;2023-04-09T04:06:06;11.00;81.80
31729;DHT22;18309;43.658;1.312;2023-04-09T04:08:31;11.00;81.40
31729;DHT22;18309;43.658;1.312;2023-04-09T04:11:03;11.00;80.80
31729;DHT22;18309;43.658;1.312;2023-04-09T04:13:29;11.00;80.70
31729;DHT22;18309;43.658;1.312;2023-04-09T04:15:55;11.00;80.80
31729;DHT22;18309;43.658;1.312;2023-04-09T04:18:20;11.00;81.00
31729;DHT22;18309;43.658;1.312;2023-04-09T04:20:46;10.90;81.70
31729;DHT22;18309;43.658;1.312;2023-04-09T04:23:12;11.00;81.80
31729;DHT22;18309;43.658;1.312;2023-04-09T04:25:40;10.90;82.00
31729;DHT22;18309;43.658;1.312;2023-04-09T04:28:06;10.90;82.00
31729;DHT22;18309;43.658;1.312;2023-04-09T04:30:32;10.90;82.40
31729;DHT22;18309;43.658;1.312;2023-04-09T04:32:58;10.90;82.20
31729;DHT22;18309;43.658;1.312;2023-04-09T04:35:24;10.90;82.10
31729;DHT22;18309;43.658;1.312;2023-04-09T04:37:49;10.90;81.80
31729;DHT22;18309;43.658;1.312;2023-04-09T04:40:16;10.90;81.90
31729;DHT22;18309;43.658;1.312;2023-04-09T04:42:41;10.90;81.90
31729;DHT22;18309;43.658;1.312;2023-04-09T04:45:08;10.80;82.00
31729;DHT22;18309;43.658;1.312;2023-04-09T04:47:33;10.70;82.50
31729;DHT22;18309;43.658;1.312;2023-04-09T04:49:59;10.70;82.80
31729;DHT22;18309;43.658;1.312;2023-04-09T04:52:26;10.60;82.80
31729;DHT22;18309;43.658;1.312;2023-04-09T04:54:52;10.60;82.80
31729;DHT22;18309;43.658;1.312;2023-04-09T04:57:17;10.60;83.10
31729;DHT22;18309;43.658;1.312;2023-04-09T04:59:43;10.50;83.40
31729;DHT22;18309;43.658;1.312;2023-04-09T05:02:09;10.50;83.60
31729;DHT22;18309;43.658;1.312;2023-04-09T05:04:34;10.50;83.50
31729;DHT22;18309;43.658;1.312;2023-04-09T05:07:00;10.40;83.80
31729;DHT22;18309;43.658;1.312;2023-04-09T05:09:26;10.40;83.90
31729;DHT22;18309;43.658;1.312;2023-04-09T05:11:51;10.30;84.40
31729;DHT22;18309;43.658;1.312;2023-04-09T05:14:17;10.20;84.70
31729;DHT22;18309;43.658;1.312;2023-04-09T05:16:45;10.20;85.10
31729;DHT22;18309;43.658;1.312;2023-04-09T05:19:11;10.20;85.10
31729;DHT22;18309;43.658;1.312;2023-04-09T05:21:36;10.20;84.80
31729;DHT22;18309;43.658;1.312;2023-04-09T05:24:02;10.10;84.50
31729;DHT22;18309;43.658;1.312;2023-04-09T05:26:28;10.10;85.00
31729;DHT22;18309;43.658;1.312;2023-04-09T05:28:54;10.10;85.40
31729;DHT22;18309;43.658;1.312;2023-04-09T05:31:20;10.00;85.90
31729;DHT22;18309;43.658;1.312;2023-04-09T05:33:46;10.00;86.30
31729;DHT22;18309;43.658;1.312;2023-04-09T05:36:15;10.00;86.60
31729;DHT22;18309;43.658;1.312;2023-04-09T05:38:42;9.90;86.60
31729;DHT22;18309;43.658;1.312;2023-04-09T05:41:08;9.90;86.50
31729;DHT22;18309;43.658;1.312;2023-04-09T05:43:34;9.90;86.50
31729;DHT22;18309;43.658;1.312;2023-04-09T05:45:59;9.80;86.60
31729;DHT22;18309;43.658;1.312;2023-04-09T05:48:25;9.80;86.70
31729;DHT22;18309;43.658;1.312;2023-04-09T05:50:51;9.80;87.10
31729;DHT22;18309;43.658;1.312;2023-04-09T05:53:18;9.80;87.20
31729;DHT22;18309;43.658;1.312;2023-04-09T05:55:45;9.80;87.80
31729;DHT22;18309;43.658;1.312;2023-04-09T05:58:11;9.80;88.20
31729;DHT22;18309;43.658;1.312;2023-04-09T06:00:37;9.80;88.30
31729;DHT22;18309;43.658;1.312;2023-04-09T06:03:03;9.90;88.60
31729;DHT22;18309;43.658;1.312;2023-04-09T06:05:29;9.90;88.80
31729;DHT22;18309;43.658;1.312;2023-04-09T06:07:55;9.90;88.60
31729;DHT22;18309;43.658;1.312;2023-04-09T06:10:21;9.80;88.30
31729;DHT22;18309;43.658;1.312;2023-04-09T06:12:46;9.90;88.40
31729;DHT22;18309;43.658;1.312;2023-04-09T06:15:12;9.90;88.40
31729;DHT22;18309;43.658;1.312;2023-04-09T06:17:38;10.00;88.60
31729;DHT22;18309;43.658;1.312;2023-04-09T06:20:04;10.00;88.80
31729;DHT22;18309;43.658;1.312;2023-04-09T06:22:30;10.00;88.90
31729;DHT22;18309;43.658;1.312;2023-04-09T06:24:56;10.00;88.70
31729;DHT22;18309;43.658;1.312;2023-04-09T06:27:21;10.10;88.50
31729;DHT22;18309;43.658;1.312;2023-04-09T06:29:47;10.10;88.50
31729;DHT22;18309;43.658;1.312;2023-04-09T06:32:13;10.10;88.00
31729;DHT22;18309;43.658;1.312;2023-04-09T06:34:38;10.20;87.90
31729;DHT22;18309;43.658;1.312;2023-04-09T06:37:04;10.20;87.70
31729;DHT22;18309;43.658;1.312;2023-04-09T06:39:30;10.20;87.30
31729;DHT22;18309;43.658;1.312;2023-04-09T06:41:57;10.20;87.40
31729;DHT22;18309;43.658;1.312;2023-04-09T06:44:23;10.20;87.40
31729;DHT22;18309;43.658;1.312;2023-04-09T06:46:49;10.30;87.50
31729;DHT22;18309;43.658;1.312;2023-04-09T06:49:14;10.30;87.60
31729;DHT22;18309;43.658;1.312;2023-04-09T06:51:40;10.40;87.70
31729;DHT22;18309;43.658;1.312;2023-04-09T06:54:06;10.40;87.40
31729;DHT22;18309;43.658;1.312;2023-04-09T06:56:32;10.50;87.40
31729;DHT22;18309;43.658;1.312;2023-04-09T06:58:58;10.50;87.50
31729;DHT22;18309;43.658;1.312;2023-04-09T07:01:24;10.60;87.20
31729;DHT22;18309;43.658;1.312;2023-04-09T07:03:50;10.60;87.20
31729;DHT22;18309;43.658;1.312;2023-04-09T07:06:16;10.70;86.90
31729;DHT22;18309;43.658;1.312;2023-04-09T07:08:42;10.70;86.10
31729;DHT22;18309;43.658;1.312;2023-04-09T07:11:07;10.70;85.90
31729;DHT22;18309;43.658;1.312;2023-04-09T07:13:33;10.80;85.50
31729;DHT22;18309;43.658;1.312;2023-04-09T07:15:59;10.80;84.80
31729;DHT22;18309;43.658;1.312;2023-04-09T07:18:25;10.90;84.80
31729;DHT22;18309;43.658;1.312;2023-04-09T07:20:51;10.90;84.00
31729;DHT22;18309;43.658;1.312;2023-04-09T07:23:18;11.00;83.80
31729;DHT22;18309;43.658;1.312;2023-04-09T07:25:43;11.00;83.40
31729;DHT22;18309;43.658;1.312;2023-04-09T07:28:09;11.10;83.40
31729;DHT22;18309;43.658;1.312;2023-04-09T07:30:36;11.10;83.80
31729;DHT22;18309;43.658;1.312;2023-04-09T07:33:02;11.20;83.50
31729;DHT22;18309;43.658;1.312;2023-04-09T07:35:27;11.20;83.20
31729;DHT22;18309;43.658;1.312;2023-04-09T07:37:53;11.20;83.90
31729;DHT22;18309;43.658;1.312;2023-04-09T07:40:19;11.30;84.40
31729;DHT22;18309;43.658;1.312;2023-04-09T07:42:44;11.30;83.80
31729;DHT22;18309;43.658;1.312;2023-04-09T07:45:10;11.40;84.40
31729;DHT22;18309;43.658;1.312;2023-04-09T07:47:37;11.40;84.50
31729;DHT22;18309;43.658;1.312;2023-04-09T07:50:04;11.50;84.50
31729;DHT22;18309;43.658;1.312;2023-04-09T07:52:30;11.50;85.10
31729;DHT22;18309;43.658;1.312;2023-04-09T07:54:56;11.60;85.10
31729;DHT22;18309;43.658;1.312;2023-04-09T07:57:22;11.60;85.40
31729;DHT22;18309;43.658;1.312;2023-04-09T07:59:47;11.70;84.90
31729;DHT22;18309;43.658;1.312;2023-04-09T08:02:13;11.70;84.10
31729;DHT22;18309;43.658;1.312;2023-04-09T08:04:39;11.70;84.20
31729;DHT22;18309;43.658;1.312;2023-04-09T08:07:04;11.80;84.50
31729;DHT22;18309;43.658;1.312;2023-04-09T08:09:30;11.80;84.10
31729;DHT22;18309;43.658;1.312;2023-04-09T08:11:56;11.90;84.80
31729;DHT22;18309;43.658;1.312;2023-04-09T08:14:22;11.90;84.30
31729;DHT22;18309;43.658;1.312;2023-04-09T08:16:48;12.00;83.90
31729;DHT22;18309;43.658;1.312;2023-04-09T08:19:15;12.00;83.90
31729;DHT22;18309;43.658;1.312;2023-04-09T08:21:42;12.10;84.20
31729;DHT22;18309;43.658;1.312;2023-04-09T08:24:09;12.10;84.10
31729;DHT22;18309;43.658;1.312;2023-04-09T08:26:36;12.20;84.00
31729;DHT22;18309;43.658;1.312;2023-04-09T08:29:02;12.20;81.50
31729;DHT22;18309;43.658;1.312;2023-04-09T08:31:28;12.30;80.90
31729;DHT22;18309;43.658;1.312;2023-04-09T08:33:54;12.30;80.30
31729;DHT22;18309;43.658;1.312;2023-04-09T08:36:20;12.40;80.20
31729;DHT22;18309;43.658;1.312;2023-04-09T08:38:46;12.30;80.20
31729;DHT22;18309;43.658;1.312;2023-04-09T08:41:25;12.40;80.40
31729;DHT22;18309;43.658;1.312;2023-04-09T08:43:52;12.40;80.10
31729;DHT22;18309;43.658;1.312;2023-04-09T08:46:19;12.50;80.40
31729;DHT22;18309;43.658;1.312;2023-04-09T08:48:46;12.50;80.90
31729;DHT22;18309;43.658;1.312;2023-04-09T08:51:16;12.60;81.40
31729;DHT22;18309;43.658;1.312;2023-04-09T08:53:46;12.60;81.60
31729;DHT22;18309;43.658;1.312;2023-04-09T08:56:15;12.60;81.50
31729;DHT22;18309;43.658;1.312;2023-04-09T08:58:42;12.70;81.60
31729;DHT22;18309;43.658;1.312;2023-04-09T09:01:22;12.80;81.60
31729;DHT22;18309;43.658;1.312;2023-04-09T09:03:56;12.80;80.60
31729;DHT22;18309;43.658;1.312;2023-04-09T09:06:23;12.90;80.30
31729;DHT22;18309;43.658;1.312;2023-04-09T09:11:32;12.90;80.20
31729;DHT22;18309;43.658;1.312;2023-04-09T09:14:04;13.00;80.10
31729;DHT22;18309;43.658;1.312;2023-04-09T09:16:31;13.00;80.00
31729;DHT22;18309;43.658;1.312;2023-04-09T09:18:59;13.10;79.40
31729;DHT22;18309;43.658;1.312;2023-04-09T09:21:26;13.20;79.30
31729;DHT22;18309;43.658;1.312;2023-04-09T09:23:53;13.20;78.90
31729;DHT22;18309;43.658;1.312;2023-04-09T09:26:26;13.30;79.10
31729;DHT22;18309;43.658;1.312;2023-04-09T09:28:53;13.30;79.00
31729;DHT22;18309;43.658;1.312;2023-04-09T09:31:20;13.40;79.10
31729;DHT22;18309;43.658;1.312;2023-04-09T09:33:47;13.40;78.90
31729;DHT22;18309;43.658;1.312;2023-04-09T09:36:29;13.40;79.00
31729;DHT22;18309;43.658;1.312;2023-04-09T09:38:57;13.50;78.70
31729;DHT22;18309;43.658;1.312;2023-04-09T09:41:23;13.60;78.70
31729;DHT22;18309;43.658;1.312;2023-04-09T09:43:50;13.60;78.30
31729;DHT22;18309;43.658;1.312;2023-04-09T09:46:17;13.70;78.20
31729;DHT22;18309;43.658;1.312;2023-04-09T09:48:44;13.70;77.80
31729;DHT22;18309;43.658;1.312;2023-04-09T09:51:13;13.80;77.60
31729;DHT22;18309;43.658;1.312;2023-04-09T09:53:42;13.90;76.90
31729;DHT22;18309;43.658;1.312;2023-04-09T09:56:21;13.90;77.00
31729;DHT22;18309;43.658;1.312;2023-04-09T09:58:58;13.90;77.00
31729;DHT22;18309;43.658;1.312;2023-04-09T10:01:28;14.00;77.30
31729;DHT22;18309;43.658;1.312;2023-04-09T10:03:55;14.00;77.40
31729;DHT22;18309;43.658;1.312;2023-04-09T10:06:24;14.10;77.60
31729;DHT22;18309;43.658;1.312;2023-04-09T10:08:51;14.10;77.30
31729;DHT22;18309;43.658;1.312;2023-04-09T10:11:18;14.20;76.60
31729;DHT22;18309;43.658;1.312;2023-04-09T10:13:57;14.20;76.10
31729;DHT22;18309;43.658;1.312;2023-04-09T10:16:26;14.30;75.80
31729;DHT22;18309;43.658;1.312;2023-04-09T10:18:56;14.30;75.90
31729;DHT22;18309;43.658;1.312;2023-04-09T10:22:03;14.40;76.00
31729;DHT22;18309;43.658;1.312;2023-04-09T10:24:31;14.40;76.00
31729;DHT22;18309;43.658;1.312;2023-04-09T10:27:09;14.50;75.50
31729;DHT22;18309;43.658;1.312;2023-04-09T10:29:45;14.50;75.50
31729;DHT22;18309;43.658;1.312;2023-04-09T10:32:13;14.60;75.60
31729;DHT22;18309;43.658;1.312;2023-04-09T10:34:42;14.60;75.40
31729;DHT22;18309;43.658;1.312;2023-04-09T10:37:29;14.70;75.70
31729;DHT22;18309;43.658;1.312;2023-04-09T10:39:55;14.70;76.30
31729;DHT22;18309;43.658;1.312;2023-04-09T10:42:38;14.80;76.30
31729;DHT22;18309;43.658;1.312;2023-04-09T10:45:08;14.90;76.00
31729;DHT22;18309;43.658;1.312;2023-04-09T10:47:36;14.90;75.80
31729;DHT22;18309;43.658;1.312;2023-04-09T10:50:34;14.90;75.80
31729;DHT22;18309;43.658;1.312;2023-04-09T10:53:03;15.00;75.30
31729;DHT22;18309;43.658;1.312;2023-04-09T10:55:32;15.00;75.30
31729;DHT22;18309;43.658;1.312;2023-04-09T10:57:59;15.10;75.20
31729;DHT22;18309;43.658;1.312;2023-04-09T11:00:25;15.10;75.00
31729;DHT22;18309;43.658;1.312;2023-04-09T11:05:36;15.20;74.90
31729;DHT22;18309;43.658;1.312;2023-04-09T11:08:10;15.30;74.40
31729;DHT22;18309;43.658;1.312;2023-04-09T11:10:37;15.30;74.30
31729;DHT22;18309;43.658;1.312;2023-04-09T11:13:04;15.40;74.10
31729;DHT22;18309;43.658;1.312;2023-04-09T11:15:31;15.40;74.80
31729;DHT22;18309;43.658;1.312;2023-04-09T11:17:59;15.50;75.10
31729;DHT22;18309;43.658;1.312;2023-04-09T11:20:25;15.40;74.60
31729;DHT22;18309;43.658;1.312;2023-04-09T11:22:52;15.60;75.00
31729;DHT22;18309;43.658;1.312;2023-04-09T11:25:29;15.60;74.90
31729;DHT22;18309;43.658;1.312;2023-04-09T11:27:55;15.60;75.20
31729;DHT22;18309;43.658;1.312;2023-04-09T11:30:21;15.70;74.90
31729;DHT22;18309;43.658;1.312;2023-04-09T11:32:48;15.80;74.80
31729;DHT22;18309;43.658;1.312;2023-04-09T11:35:18;15.80;73.90
31729;DHT22;18309;43.658;1.312;2023-04-09T11:37:44;15.80;74.20
31729;DHT22;18309;43.658;1.312;2023-04-09T11:40:30;15.90;74.30
31729;DHT22;18309;43.658;1.312;2023-04-09T11:42:56;15.90;74.70
31729;DHT22;18309;43.658;1.312;2023-04-09T11:45:26;16.00;75.10
31729;DHT22;18309;43.658;1.312;2023-04-09T11:47:52;16.00;75.20
31729;DHT22;18309;43.658;1.312;2023-04-09T11:50:18;16.10;74.70
31729;DHT22;18309;43.658;1.312;2023-04-09T11:52:45;16.10;74.50
31729;DHT22;18309;43.658;1.312;2023-04-09T11:55:17;16.20;74.80
31729;DHT22;18309;43.658;1.312;2023-04-09T11:57:46;16.20;74.70
31729;DHT22;18309;43.658;1.312;2023-04-09T12:00:14;16.20;74.30
31729;DHT22;18309;43.658;1.312;2023-04-09T12:02:43;16.30;74.10
31729;DHT22;18309;43.658;1.312;2023-04-09T12:05:11;16.30;74.20
31729;DHT22;18309;43.658;1.312;2023-04-09T12:07:37;16.30;74.30
31729;DHT22;18309;43.658;1.312;2023-04-09T12:10:08;16.40;75.00
31729;DHT22;18309;43.658;1.312;2023-04-09T12:12:44;16.40;74.00
31729;DHT22;18309;43.658;1.312;2023-04-09T12:15:21;16.40;74.20
31729;DHT22;18309;43.658;1.312;2023-04-09T12:17:53;16.50;74.10
31729;DHT22;18309;43.658;1.312;2023-04-09T12:20:39;16.60;73.70
31729;DHT22;18309;43.658;1.312;2023-04-09T12:23:07;16.60;73.70
31729;DHT22;18309;43.658;1.312;2023-04-09T12:25:34;16.60;73.30
31729;DHT22;18309;43.658;1.312;2023-04-09T12:28:01;16.70;73.60
31729;DHT22;18309;43.658;1.312;2023-04-09T12:30:27;16.80;73.40
31729;DHT22;18309;43.658;1.312;2023-04-09T12:32:53;16.80;73.30
31729;DHT22;18309;43.658;1.312;2023-04-09T12:35:20;16.80;73.10
31729;DHT22;18309;43.658;1.312;2023-04-09T12:37:46;16.80;72.50
31729;DHT22;18309;43.658;1.312;2023-04-09T12:40:12;16.90;72.50
31729;DHT22;18309;43.658;1.312;2023-04-09T12:42:42;16.90;71.60
31729;DHT22;18309;43.658;1.312;2023-04-09T12:45:09;17.00;71.50
31729;DHT22;18309;43.658;1.312;2023-04-09T12:47:35;17.00;71.10
31729;DHT22;18309;43.658;1.312;2023-04-09T12:50:03;17.20;70.90
31729;DHT22;18309;43.658;1.312;2023-04-09T12:52:29;17.20;70.70
31729;DHT22;18309;43.658;1.312;2023-04-09T12:54:55;17.30;70.30
31729;DHT22;18309;43.658;1.312;2023-04-09T12:57:20;17.40;69.90
31729;DHT22;18309;43.658;1.312;2023-04-09T12:59:46;17.40;71.00
31729;DHT22;18309;43.658;1.312;2023-04-09T13:02:12;17.50;72.20
31729;DHT22;18309;43.658;1.312;2023-04-09T13:04:38;17.60;73.10
31729;DHT22;18309;43.658;1.312;2023-04-09T13:07:03;17.70;72.90
31729;DHT22;18309;43.658;1.312;2023-04-09T13:09:29;17.80;72.10
31729;DHT22;18309;43.658;1.312;2023-04-09T13:11:55;17.90;72.30
31729;DHT22;18309;43.658;1.312;2023-04-09T13:14:20;18.00;72.00
31729;DHT22;18309;43.658;1.312;2023-04-09T13:16:46;18.00;73.70
31729;DHT22;18309;43.658;1.312;2023-04-09T13:19:12;18.20;73.50
31729;DHT22;18309;43.658;1.312;2023-04-09T13:21:38;18.30;71.50
31729;DHT22;18309;43.658;1.312;2023-04-09T13:24:04;18.40;73.20
31729;DHT22;18309;43.658;1.312;2023-04-09T13:26:30;18.50;72.50
31729;DHT22;18309;43.658;1.312;2023-04-09T13:28:56;18.60;72.00
31729;DHT22;18309;43.658;1.312;2023-04-09T13:31:23;18.80;72.20
31729;DHT22;18309;43.658;1.312;2023-04-09T13:33:49;19.00;71.30
31729;DHT22;18309;43.658;1.312;2023-04-09T13:36:15;19.10;71.60
31729;DHT22;18309;43.658;1.312;2023-04-09T13:38:41;19.30;71.30
31729;DHT22;18309;43.658;1.312;2023-04-09T13:41:06;19.40;72.20
31729;DHT22;18309;43.658;1.312;2023-04-09T13:43:32;19.50;72.80
31729;DHT22;18309;43.658;1.312;2023-04-09T13:45:58;19.60;74.10
31729;DHT22;18309;43.658;1.312;2023-04-09T13:48:23;19.70;73.40
31729;DHT22;18309;43.658;1.312;2023-04-09T13:50:50;19.90;74.50
31729;DHT22;18309;43.658;1.312;2023-04-09T13:53:15;20.00;73.50
31729;DHT22;18309;43.658;1.312;2023-04-09T13:55:42;20.20;72.50
31729;DHT22;18309;43.658;1.312;2023-04-09T13:58:08;20.30;71.30
31729;DHT22;18309;43.658;1.312;2023-04-09T14:00:34;20.50;71.90
31729;DHT22;18309;43.658;1.312;2023-04-09T14:03:01;20.70;71.00
31729;DHT22;18309;43.658;1.312;2023-04-09T14:05:28;20.90;71.70
31729;DHT22;18309;43.658;1.312;2023-04-09T14:07:54;21.00;69.40
31729;DHT22;18309;43.658;1.312;2023-04-09T14:10:20;21.30;66.50
31729;DHT22;18309;43.658;1.312;2023-04-09T14:12:45;21.60;67.10
31729;DHT22;18309;43.658;1.312;2023-04-09T14:15:11;21.80;67.40
31729;DHT22;18309;43.658;1.312;2023-04-09T14:17:38;22.00;66.20
31729;DHT22;18309;43.658;1.312;2023-04-09T14:20:04;22.20;66.10
31729;DHT22;18309;43.658;1.312;2023-04-09T14:22:31;22.30;64.90
31729;DHT22;18309;43.658;1.312;2023-04-09T14:24:57;22.60;63.70
31729;DHT22;18309;43.658;1.312;2023-04-09T14:27:24;22.80;62.60
31729;DHT22;18309;43.658;1.312;2023-04-09T14:29:50;23.10;61.90
31729;DHT22;18309;43.658;1.312;2023-04-09T14:32:16;23.30;60.10
31729;DHT22;18309;43.658;1.312;2023-04-09T14:34:42;23.50;57.80
31729;DHT22;18309;43.658;1.312;2023-04-09T14:37:08;23.80;59.10
31729;DHT22;18309;43.658;1.312;2023-04-09T14:39:33;23.90;58.90
31729;DHT22;18309;43.658;1.312;2023-04-09T14:41:59;24.10;59.90
31729;DHT22;18309;43.658;1.312;2023-04-09T14:44:26;24.30;58.70
31729;DHT22;18309;43.658;1.312;2023-04-09T14:46:51;24.50;58.70
31729;DHT22;18309;43.658;1.312;2023-04-09T14:49:19;24.70;58.70
31729;DHT22;18309;43.658;1.312;2023-04-09T14:51:46;24.80;58.30
31729;DHT22;18309;43.658;1.312;2023-04-09T14:54:12;25.10;57.90
31729;DHT22;18309;43.658;1.312;2023-04-09T14:56:37;25.20;55.50
31729;DHT22;18309;43.658;1.312;2023-04-09T14:59:03;25.40;55.80
31729;DHT22;18309;43.658;1.312;2023-04-09T15:01:29;25.50;57.90
31729;DHT22;18309;43.658;1.312;2023-04-09T15:03:55;25.70;55.60
31729;DHT22;18309;43.658;1.312;2023-04-09T15:06:21;25.90;56.00
31729;DHT22;18309;43.658;1.312;2023-04-09T15:08:46;26.10;54.70
31729;DHT22;18309;43.658;1.312;2023-04-09T15:11:16;26.30;53.80
31729;DHT22;18309;43.658;1.312;2023-04-09T15:13:42;26.30;54.20
31729;DHT22;18309;43.658;1.312;2023-04-09T15:16:09;26.50;55.70
31729;DHT22;18309;43.658;1.312;2023-04-09T15:18:34;26.70;54.00
31729;DHT22;18309;43.658;1.312;2023-04-09T15:21:02;26.70;55.10
31729;DHT22;18309;43.658;1.312;2023-04-09T15:23:28;26.90;51.10
31729;DHT22;18309;43.658;1.312;2023-04-09T15:25:55;27.00;53.40
31729;DHT22;18309;43.658;1.312;2023-04-09T15:28:20;27.00;54.40
31729;DHT22;18309;43.658;1.312;2023-04-09T15:30:46;27.10;52.30
31729;DHT22;18309;43.658;1.312;2023-04-09T15:33:12;27.30;53.10
31729;DHT22;18309;43.658;1.312;2023-04-09T15:35:38;27.40;51.80
31729;DHT22;18309;43.658;1.312;2023-04-09T15:38:03;27.60;50.70
31729;DHT22;18309;43.658;1.312;2023-04-09T15:40:30;27.70;51.00
31729;DHT22;18309;43.658;1.312;2023-04-09T15:42:56;27.90;51.80
31729;DHT22;18309;43.658;1.312;2023-04-09T15:45:22;27.90;52.10
31729;DHT22;18309;43.658;1.312;2023-04-09T15:47:48;28.00;52.70
31729;DHT22;18309;43.658;1.312;2023-04-09T15:50:14;28.10;52.70